Time;durP1;ratioP1;P1;durP2;ratioP2;P2;SDS_P1;SDS_P2;PMS_P1;PMS_P2;Temp;Humidity;BMP_temperature;BMP_pressure;BME280_temperature;BME280_humidity;BME280_pressure;Samples;Min_cycle;Max_cycle;Signal;HPM_P1;HPM_P2
2022/03/07 00:01:13;;;;;;;64.28;36.90;;;25.60;2201.60;;;;;;5012069;28;20101;-75
2022/03/07 00:03:39;;;;;;;73.97;39.67;;;25.60;2201.60;;;;;;5012056;28;20609;-75
2022/03/07 00:06:05;;;;;;;42.22;26.88;;;25.60;2201.60;;;;;;5011836;28;20133;-75
2022/03/07 00:08:31;;;;;;;40.53;26.58;;;0.90;2201.60;;;;;;5011447;28;20385;-75
2022/03/07 00:10:56;;;;;;;37.05;23.70;;;0.90;2201.60;;;;;;5013049;28;20026;-75
2022/03/07 00:13:22;;;;;;;38.55;24.10;;;25.60;2201.60;;;;;;5011951;28;20030;-74
2022/03/07 00:15:48;;;;;;;37.15;25.00;;;25.60;2201.60;;;;;;5012826;28;20462;-77
2022/03/07 00:18:13;;;;;;;40.85;25.00;;;25.60;2201.60;;;;;;5012054;28;20025;-76
2022/03/07 00:20:39;;;;;;;41.83;25.25;;;0.90;2201.60;;;;;;5008283;28;20025;-75
2022/03/07 00:23:05;;;;;;;42.33;27.08;;;25.60;2201.60;;;;;;5012501;28;20104;-75
2022/03/07 00:25:31;;;;;;;43.53;29.15;;;25.60;2201.60;;;;;;5008008;28;20068;-75
2022/03/07 00:27:57;;;;;;;49.40;32.33;;;25.60;2201.60;;;;;;5012255;28;20033;-75
2022/03/07 00:30:23;;;;;;;46.38;30.17;;;25.70;2201.60;;;;;;5011862;28;20453;-77
2022/03/07 00:32:48;;;;;;;46.20;29.38;;;25.70;2201.60;;;;;;5011952;28;20464;-75
2022/03/07 00:35:16;;;;;;;42.58;24.80;;;25.70;2201.60;;;;;;5010781;28;20461;-76
2022/03/07 00:37:41;;;;;;;53.78;31.08;;;25.60;2201.60;;;;;;5012171;28;20510;-75
2022/03/07 00:40:09;;;;;;;56.40;31.83;;;25.60;2201.60;;;;;;5011627;28;20049;-75
2022/03/07 00:42:39;;;;;;;51.90;33.45;;;25.60;2201.60;;;;;;5012014;28;20457;-76
2022/03/07 00:45:07;;;;;;;34.15;23.92;;;25.70;2201.60;;;;;;5011796;28;20034;-76
2022/03/07 00:47:32;;;;;;;48.53;29.40;;;25.60;2201.60;;;;;;5005068;28;20143;-75
2022/03/07 00:49:58;;;;;;;53.70;33.58;;;25.70;2201.60;;;;;;5010335;28;20643;-75
2022/03/07 00:52:24;;;;;;;41.40;28.55;;;25.70;2201.60;;;;;;5010582;28;20033;-76
2022/03/07 00:54:49;;;;;;;44.08;28.05;;;25.70;2201.60;;;;;;5010247;28;20442;-77
2022/03/07 00:57:15;;;;;;;34.72;23.30;;;25.70;2201.60;;;;;;5010589;28;20072;-77
2022/03/07 00:59:41;;;;;;;38.40;24.88;;;25.80;2201.60;;;;;;5010603;28;20457;-77
2022/03/07 01:02:06;;;;;;;40.33;24.65;;;25.80;2201.60;;;;;;5011819;28;20053;-75
2022/03/07 01:04:32;;;;;;;34.95;22.60;;;25.70;2201.60;;;;;;5010898;28;20122;-75
2022/03/07 01:06:58;;;;;;;33.10;22.88;;;25.70;2201.60;;;;;;5011073;28;20041;-75
2022/03/07 01:09:24;;;;;;;35.35;23.10;;;25.60;2201.60;;;;;;5011485;28;20029;-76
2022/03/07 01:11:49;;;;;;;30.92;19.85;;;25.70;2201.60;;;;;;5011102;28;20041;-77
2022/03/07 01:14:15;;;;;;;32.05;20.23;;;25.60;2201.60;;;;;;5043665;28;20395;-77
2022/03/07 01:16:41;;;;;;;27.13;18.67;;;25.60;2201.60;;;;;;5012628;28;20040;-76
2022/03/07 01:19:06;;;;;;;28.92;20.35;;;25.70;2201.60;;;;;;5012382;28;20366;-76
2022/03/07 01:21:32;;;;;;;34.20;23.35;;;25.70;2201.60;;;;;;5011078;28;20072;-76
2022/03/07 01:23:58;;;;;;;32.45;20.65;;;25.80;2201.60;;;;;;5012101;28;20056;-77
2022/03/07 01:26:24;;;;;;;28.35;19.85;;;25.80;2201.60;;;;;;5011071;28;20120;-75
2022/03/07 01:28:49;;;;;;;29.92;19.23;;;25.80;2201.60;;;;;;5011435;28;20413;-77
2022/03/07 01:31:15;;;;;;;39.00;25.20;;;25.80;2201.60;;;;;;5010917;28;20038;-77
2022/03/07 01:33:41;;;;;;;36.88;23.27;;;25.70;2201.60;;;;;;5010900;28;20056;-76
2022/03/07 01:36:06;;;;;;;46.28;28.92;;;25.70;2201.60;;;;;;5011868;28;20034;-76
2022/03/07 01:38:32;;;;;;;49.67;31.80;;;25.70;2201.60;;;;;;5010893;28;20036;-77
2022/03/07 01:40:58;;;;;;;51.83;31.23;;;25.60;2201.60;;;;;;5012046;28;20026;-77
2022/03/07 01:43:24;;;;;;;49.03;30.85;;;25.60;2201.60;;;;;;5011050;28;20073;-76
2022/03/07 01:45:49;;;;;;;56.50;32.78;;;25.60;2201.60;;;;;;5010388;28;20081;-77
2022/03/07 01:48:15;;;;;;;47.63;30.75;;;0.90;2201.60;;;;;;5011321;28;20033;-76
2022/03/07 01:50:42;;;;;;;48.40;30.52;;;25.60;2201.60;;;;;;4993774;28;20022;-76
2022/03/07 01:53:08;;;;;;;44.63;28.33;;;25.70;2201.60;;;;;;4999543;28;20153;-75
2022/03/07 01:55:34;;;;;;;40.78;26.33;;;25.70;2201.60;;;;;;5009761;28;20026;-76
2022/03/07 01:58:00;;;;;;;33.67;22.45;;;25.60;2201.60;;;;;;5011561;28;20381;-76
2022/03/07 02:00:27;;;;;;;39.30;24.85;;;25.60;2201.60;;;;;;5010618;28;20029;-76
2022/03/07 02:02:56;;;;;;;42.85;25.90;;;25.60;2201.60;;;;;;5010923;28;20397;-76
2022/03/07 02:05:22;;;;;;;38.72;26.90;;;25.60;2201.60;;;;;;5010669;28;20042;-76
2022/03/07 02:07:47;;;;;;;44.67;26.98;;;25.60;2201.60;;;;;;5010732;28;20089;-76
2022/03/07 02:10:14;;;;;;;47.42;27.30;;;0.90;2201.60;;;;;;5009641;28;20073;-76
2022/03/07 02:12:40;;;;;;;41.55;26.30;;;0.90;2201.60;;;;;;5008604;28;20114;-76
2022/03/07 02:15:07;;;;;;;46.13;28.27;;;0.90;2201.60;;;;;;5010650;28;20521;-76
2022/03/07 02:17:33;;;;;;;45.05;28.40;;;0.90;2201.60;;;;;;5011063;28;20025;-76
2022/03/07 02:19:59;;;;;;;49.33;28.65;;;25.60;2201.60;;;;;;5009756;28;20065;-77
2022/03/07 02:22:25;;;;;;;39.45;25.33;;;25.60;2201.60;;;;;;5009176;28;20499;-76
2022/03/07 02:24:51;;;;;;;39.90;25.02;;;25.60;2201.60;;;;;;4993169;28;20050;-76
2022/03/07 02:27:18;;;;;;;41.17;23.88;;;0.80;2201.60;;;;;;5010615;28;20014;-77
2022/03/07 02:29:45;;;;;;;38.15;24.20;;;0.90;2201.60;;;;;;5010932;28;20105;-76
2022/03/07 02:32:12;;;;;;;37.25;22.70;;;25.60;2201.60;;;;;;5011321;28;20457;-76
2022/03/07 02:34:38;;;;;;;36.65;22.77;;;25.60;2201.60;;;;;;5009581;28;20147;-76
2022/03/07 02:37:04;;;;;;;38.63;22.17;;;25.60;2201.60;;;;;;5010888;28;20029;-75
2022/03/07 02:39:30;;;;;;;32.97;21.40;;;25.70;2201.60;;;;;;5010922;28;20026;-75
2022/03/07 02:41:56;;;;;;;37.55;24.65;;;25.70;2201.60;;;;;;5014479;28;20048;-77
2022/03/07 02:44:23;;;;;;;37.83;24.35;;;25.70;2201.60;;;;;;4999504;28;20081;-77
2022/03/07 02:46:49;;;;;;;42.38;27.50;;;25.70;2201.60;;;;;;5013798;28;20033;-77
2022/03/07 02:49:15;;;;;;;41.20;26.40;;;25.70;2201.60;;;;;;5013800;28;20014;-76
2022/03/07 02:51:41;;;;;;;46.75;28.17;;;25.70;2201.60;;;;;;5012659;28;20036;-77
2022/03/07 02:54:06;;;;;;;38.42;26.10;;;25.80;2201.60;;;;;;5012809;28;20108;-75
2022/03/07 02:56:32;;;;;;;38.10;25.25;;;25.90;2201.60;;;;;;5014335;28;20026;-77
2022/03/07 02:58:58;;;;;;;34.67;23.25;;;25.80;2201.60;;;;;;5013798;28;20448;-77
2022/03/07 03:01:24;;;;;;;35.80;23.92;;;25.80;2201.60;;;;;;5014359;28;20022;-77
2022/03/07 03:03:49;;;;;;;33.92;22.33;;;25.70;2201.60;;;;;;5012575;28;20045;-76
2022/03/07 03:06:15;;;;;;;36.42;23.23;;;25.80;2201.60;;;;;;5013254;28;20080;-77
2022/03/07 03:08:41;;;;;;;35.25;23.90;;;25.80;2201.60;;;;;;5012487;28;20118;-77
2022/03/07 03:11:07;;;;;;;36.78;23.17;;;25.80;2201.60;;;;;;5014098;28;20104;-76
2022/03/07 03:13:33;;;;;;;35.70;22.70;;;25.80;2201.60;;;;;;5013483;28;20072;-77
2022/03/07 03:15:58;;;;;;;43.10;27.25;;;25.80;2201.60;;;;;;4998918;28;20048;-76
2022/03/07 03:18:24;;;;;;;43.75;27.10;;;25.90;2201.60;;;;;;5013420;28;20022;-76
2022/03/07 03:20:51;;;;;;;35.80;23.08;;;25.80;2201.60;;;;;;5012284;28;20543;-76
2022/03/07 03:23:18;;;;;;;38.85;25.08;;;25.70;2201.60;;;;;;5013484;28;20080;-77
2022/03/07 03:25:44;;;;;;;43.80;27.17;;;25.80;2201.60;;;;;;5010778;28;20024;-76
2022/03/07 03:28:11;;;;;;;32.92;22.67;;;25.90;2201.60;;;;;;5013475;28;20029;-76
2022/03/07 03:30:37;;;;;;;33.03;23.20;;;25.90;2201.60;;;;;;5013505;28;20532;-77
2022/03/07 03:33:03;;;;;;;37.08;24.13;;;26.00;2201.60;;;;;;5013957;28;20022;-76
2022/03/07 03:35:29;;;;;;;37.55;23.63;;;26.00;2201.60;;;;;;5014233;28;20359;-76
2022/03/07 03:37:55;;;;;;;36.15;23.27;;;26.00;2201.60;;;;;;5012310;28;20033;-77
2022/03/07 03:40:21;;;;;;;34.05;22.38;;;26.00;2201.60;;;;;;5012607;28;20037;-76
2022/03/07 03:42:47;;;;;;;35.20;23.35;;;26.00;2201.60;;;;;;5012513;28;20500;-75
2022/03/07 03:45:14;;;;;;;37.03;23.90;;;26.00;2201.60;;;;;;5013808;28;20045;-76
2022/03/07 03:47:42;;;;;;;39.28;22.67;;;25.90;2201.60;;;;;;5012528;28;20060;-76
2022/03/07 03:50:10;;;;;;;39.20;25.45;;;25.80;2201.60;;;;;;5013778;28;20104;-76
2022/03/07 03:52:37;;;;;;;35.95;21.40;;;25.80;2201.60;;;;;;5011791;28;20116;-77
2022/03/07 03:55:05;;;;;;;34.45;24.05;;;25.70;2201.60;;;;;;5013338;28;20026;-75
2022/03/07 03:57:30;;;;;;;33.30;22.65;;;25.60;2201.60;;;;;;5012219;28;20030;-76
2022/03/07 03:59:56;;;;;;;30.65;20.05;;;25.60;2201.60;;;;;;5013570;28;20511;-76
2022/03/07 04:02:22;;;;;;;23.73;15.48;;;25.70;2201.60;;;;;;5013521;28;20030;-76
2022/03/07 04:04:48;;;;;;;29.63;18.25;;;25.70;2201.60;;;;;;5013033;28;20045;-76
2022/03/07 04:07:14;;;;;;;38.28;22.73;;;25.70;2201.60;;;;;;5013463;28;20481;-75
2022/03/07 04:09:40;;;;;;;28.33;17.95;;;25.70;2201.60;;;;;;5011916;28;20076;-76
2022/03/07 04:12:07;;;;;;;25.17;17.60;;;25.70;2201.60;;;;;;5013600;28;20026;-75
2022/03/07 04:14:32;;;;;;;27.77;17.50;;;25.70;2201.60;;;;;;5013579;28;20055;-75
2022/03/07 04:16:59;;;;;;;26.77;17.02;;;25.60;2201.60;;;;;;5013107;28;20097;-75
2022/03/07 04:19:26;;;;;;;33.17;22.05;;;25.60;2201.60;;;;;;5013188;28;20408;-76
2022/03/07 04:21:54;;;;;;;45.35;26.20;;;25.70;2201.60;;;;;;5011898;28;20469;-76
2022/03/07 04:24:20;;;;;;;35.75;22.30;;;25.70;2201.60;;;;;;5013053;28;20044;-76
2022/03/07 04:26:46;;;;;;;36.65;22.58;;;25.80;2201.60;;;;;;5012808;28;20421;-75
2022/03/07 04:29:12;;;;;;;36.72;23.55;;;25.70;2201.60;;;;;;5011754;28;20121;-77
2022/03/07 04:31:43;;;;;;;30.42;20.45;;;25.80;2201.60;;;;;;5013058;28;20473;-76
2022/03/07 04:34:12;;;;;;;30.38;19.85;;;25.80;2201.60;;;;;;5011560;28;20029;-76
2022/03/07 04:36:39;;;;;;;30.70;21.38;;;25.80;2201.60;;;;;;5012646;28;20076;-76
2022/03/07 04:39:07;;;;;;;27.67;17.83;;;25.70;2201.60;;;;;;5011602;28;20026;-76
2022/03/07 04:41:33;;;;;;;27.65;18.48;;;25.70;2201.60;;;;;;5012473;28;20021;-75
2022/03/07 04:43:59;;;;;;;26.58;17.35;;;25.70;2201.60;;;;;;5013040;28;20092;-76
2022/03/07 04:46:25;;;;;;;29.52;18.90;;;25.60;2201.60;;;;;;5012857;28;20104;-76
2022/03/07 04:48:51;;;;;;;28.13;17.95;;;25.60;2201.60;;;;;;5011449;28;20140;-75
2022/03/07 04:51:17;;;;;;;31.25;20.20;;;25.60;2201.60;;;;;;5012688;28;20029;-76
2022/03/07 04:53:42;;;;;;;29.20;18.20;;;25.60;2201.60;;;;;;5012261;28;20021;-75
2022/03/07 04:56:09;;;;;;;30.13;20.50;;;25.60;2201.60;;;;;;5011198;28;20034;-75
2022/03/07 04:58:35;;;;;;;28.27;18.45;;;0.90;2201.60;;;;;;5012557;28;20101;-75
2022/03/07 05:01:01;;;;;;;39.53;26.08;;;0.80;2201.60;;;;;;5011902;28;20105;-76
2022/03/07 05:03:27;;;;;;;45.35;28.65;;;0.80;2201.60;;;;;;5010191;28;20037;-76
2022/03/07 05:05:53;;;;;;;42.80;27.10;;;0.80;2201.60;;;;;;5011862;28;20050;-76
2022/03/07 05:08:18;;;;;;;47.17;29.70;;;0.80;2201.60;;;;;;5011697;28;20386;-76
2022/03/07 05:10:44;;;;;;;32.75;21.02;;;0.90;2201.60;;;;;;5012232;28;20501;-76
2022/03/07 05:13:10;;;;;;;48.45;29.90;;;0.80;2201.60;;;;;;5011869;28;20025;-76
2022/03/07 05:15:37;;;;;;;49.13;29.77;;;0.90;2201.60;;;;;;5012307;28;20029;-76
2022/03/07 05:18:03;;;;;;;54.05;35.13;;;25.60;2201.60;;;;;;5012249;28;20022;-75
2022/03/07 05:20:29;;;;;;;58.15;36.67;;;25.60;2201.60;;;;;;5012168;28;20022;-75
2022/03/07 05:22:55;;;;;;;43.08;28.70;;;25.70;2201.60;;;;;;5010639;28;20076;-76
2022/03/07 05:25:21;;;;;;;152.57;79.07;;;25.70;2201.60;;;;;;5010512;28;20524;-76
2022/03/07 05:27:48;;;;;;;62.15;39.08;;;25.70;2201.60;;;;;;5010715;28;20113;-75
2022/03/07 05:30:16;;;;;;;53.92;35.17;;;25.80;2201.60;;;;;;5011510;28;20026;-75
2022/03/07 05:32:44;;;;;;;116.45;64.88;;;25.80;2201.60;;;;;;5011530;28;20101;-76
2022/03/07 05:35:10;;;;;;;116.80;63.95;;;25.70;2201.60;;;;;;5011757;28;20490;-75
2022/03/07 05:37:36;;;;;;;83.28;50.55;;;25.80;2201.60;;;;;;5010265;28;20033;-77
2022/03/07 05:40:03;;;;;;;56.80;33.45;;;25.80;2201.60;;;;;;5010362;28;20125;-76
2022/03/07 05:42:29;;;;;;;42.50;27.20;;;25.70;2201.60;;;;;;5011576;28;20473;-75
2022/03/07 05:44:55;;;;;;;74.75;46.42;;;25.60;2201.60;;;;;;5011000;28;20048;-75
2022/03/07 05:47:20;;;;;;;81.85;44.78;;;25.70;2201.60;;;;;;5011631;28;20022;-75
2022/03/07 05:49:46;;;;;;;50.95;31.58;;;25.70;2201.60;;;;;;5011771;28;20022;-75
2022/03/07 05:52:12;;;;;;;43.33;28.02;;;25.90;2201.60;;;;;;5011304;28;20104;-75
2022/03/07 05:54:37;;;;;;;45.83;30.08;;;25.80;2201.60;;;;;;5010556;28;20477;-77
2022/03/07 05:57:03;;;;;;;49.78;30.65;;;25.90;2201.60;;;;;;5010309;28;20022;-76
2022/03/07 05:59:29;;;;;;;46.15;29.50;;;25.90;2201.60;;;;;;5011193;28;20032;-75
2022/03/07 06:01:54;;;;;;;43.10;27.27;;;25.90;2201.60;;;;;;5011161;28;20038;-76
2022/03/07 06:04:21;;;;;;;28.42;19.48;;;25.80;2201.60;;;;;;5011663;28;20041;-77
2022/03/07 06:06:46;;;;;;;45.42;30.40;;;25.80;2201.60;;;;;;4999463;28;20061;-76
2022/03/07 06:09:12;;;;;;;37.28;25.52;;;25.90;2201.60;;;;;;5011508;28;20105;-76
2022/03/07 06:11:38;;;;;;;38.42;25.95;;;25.90;2201.60;;;;;;5011663;28;20022;-75
2022/03/07 06:14:03;;;;;;;46.17;30.52;;;26.00;2201.60;;;;;;5011030;28;20041;-76
2022/03/07 06:16:29;;;;;;;41.05;27.90;;;26.10;2201.60;;;;;;5013875;28;20097;-75
2022/03/07 06:18:55;;;;;;;51.58;37.67;;;26.10;2201.60;;;;;;5015099;28;20392;-76
2022/03/07 06:21:20;;;;;;;48.95;30.27;;;26.20;2201.60;;;;;;5015459;28;20037;-84
2022/03/07 06:23:46;;;;;;;49.58;33.80;;;26.10;2201.60;;;;;;5011290;28;20396;-76
2022/03/07 06:26:12;;;;;;;45.42;31.45;;;26.30;2201.60;;;;;;5005831;28;20030;-77
2022/03/07 06:28:37;;;;;;;66.28;39.65;;;26.40;2201.60;;;;;;5013149;28;20087;-78
2022/03/07 06:31:03;;;;;;;44.30;29.45;;;26.10;2201.60;;;;;;5012976;28;20034;-78
2022/03/07 06:33:29;;;;;;;50.35;33.00;;;26.20;2201.60;;;;;;5014754;28;20500;-76
2022/03/07 06:35:55;;;;;;;52.03;34.92;;;26.40;2201.60;;;;;;5015393;28;20028;-78
2022/03/07 06:38:21;;;;;;;55.58;36.33;;;26.40;2201.60;;;;;;5014813;28;20469;-76
2022/03/07 06:40:47;;;;;;;55.05;34.47;;;51.20;2227.20;;;;;;5014675;28;20026;-85
2022/03/07 06:43:12;;;;;;;55.72;34.28;;;51.40;2227.20;;;;;;5015532;28;20022;-81
2022/03/07 06:45:39;;;;;;;50.95;31.13;;;51.40;2227.20;;;;;;5020330;28;20079;-85
2022/03/07 06:48:05;;;;;;;46.90;29.15;;;26.40;2201.60;;;;;;5013567;28;20030;-82
2022/03/07 06:50:31;;;;;;;50.47;33.28;;;26.40;2201.60;;;;;;5014143;28;20034;-81
2022/03/07 06:52:58;;;;;;;35.15;24.05;;;51.30;2227.20;;;;;;5012104;28;20033;-82
2022/03/07 06:55:24;;;;;;;33.92;22.27;;;51.50;2227.20;;;;;;5012950;28;20066;-80
2022/03/07 06:57:50;;;;;;;37.97;22.67;;;51.30;2227.20;;;;;;5013179;28;20068;-78
2022/03/07 07:00:17;;;;;;;29.75;19.73;;;51.20;2227.20;;;;;;5013086;28;20026;-80
2022/03/07 07:02:44;;;;;;;27.15;18.13;;;51.20;2227.20;;;;;;5013156;28;20554;-80
2022/03/07 07:05:10;;;;;;;29.13;18.23;;;26.50;2201.60;;;;;;5012983;28;20041;-78
2022/03/07 07:07:37;;;;;;;35.92;23.58;;;51.30;2227.20;;;;;;5013205;28;20120;-81
2022/03/07 07:10:05;;;;;;;34.03;24.50;;;51.30;2227.20;;;;;;5013724;28;20026;-82
2022/03/07 07:12:31;;;;;;;45.28;29.52;;;51.40;2227.20;;;;;;5013576;28;20033;-81
2022/03/07 07:14:57;;;;;;;40.88;26.23;;;51.50;2227.20;;;;;;5013595;28;20030;-83
2022/03/07 07:17:23;;;;;;;36.45;24.65;;;51.70;2227.20;;;;;;5013338;28;20026;-81
2022/03/07 07:19:48;;;;;;;35.58;24.75;;;51.70;2227.20;;;;;;5014090;28;20385;-79
2022/03/07 07:22:14;;;;;;;39.08;26.63;;;51.80;2227.20;;;;;;5014250;28;20108;-84
2022/03/07 07:24:41;;;;;;;47.78;29.15;;;52.10;2227.20;;;;;;5014849;28;20045;-82
2022/03/07 07:27:07;;;;;;;40.17;27.67;;;52.00;2227.20;;;;;;5013572;28;20057;-83
2022/03/07 07:29:33;;;;;;;35.15;21.95;;;51.90;2227.20;;;;;;5014477;28;20100;-81
2022/03/07 07:31:59;;;;;;;33.90;21.85;;;52.00;2227.20;;;;;;5013053;28;20121;-82
2022/03/07 07:34:25;;;;;;;29.63;19.35;;;52.00;2227.20;;;;;;5014155;28;20057;-86
2022/03/07 07:36:51;;;;;;;37.47;23.80;;;51.90;2227.20;;;;;;5014109;28;20104;-81
2022/03/07 07:39:17;;;;;;;32.08;21.50;;;52.00;2227.20;;;;;;5014701;28;20085;-83
2022/03/07 07:41:43;;;;;;;28.65;18.52;;;52.00;2227.20;;;;;;5014271;28;20433;-80
2022/03/07 07:44:08;;;;;;;38.88;25.20;;;52.00;2227.20;;;;;;5014042;28;20097;-79
2022/03/07 07:46:34;;;;;;;35.97;22.27;;;52.10;2227.20;;;;;;5013847;28;20026;-81
2022/03/07 07:49:00;;;;;;;26.42;13.27;;;51.90;2227.20;;;;;;5013870;28;20385;-80
2022/03/07 07:51:26;;;;;;;27.95;18.33;;;51.80;2227.20;;;;;;5014104;28;20870;-79
2022/03/07 07:53:52;;;;;;;24.00;16.20;;;51.90;2227.20;;;;;;5013697;28;20018;-82
2022/03/07 07:56:17;;;;;;;31.13;18.83;;;51.70;2227.20;;;;;;5013678;28;20358;-81
2022/03/07 07:58:43;;;;;;;26.10;18.60;;;52.00;2227.20;;;;;;5012591;28;20075;-83
2022/03/07 08:01:09;;;;;;;33.63;18.27;;;51.80;2227.20;;;;;;5013876;28;20062;-82
2022/03/07 08:03:35;;;;;;;32.58;24.90;;;51.60;2227.20;;;;;;5013388;28;20030;-79
2022/03/07 08:06:01;;;;;;;24.50;17.63;;;51.60;2227.20;;;;;;5013363;28;20073;-82
2022/03/07 08:08:27;;;;;;;25.90;17.15;;;51.60;2227.20;;;;;;5013796;28;20076;-83
2022/03/07 08:10:52;;;;;;;25.67;18.60;;;51.40;2227.20;;;;;;5013856;28;20022;-84
2022/03/07 08:13:18;;;;;;;18.70;12.65;;;51.70;2227.20;;;;;;5013831;28;20041;-81
2022/03/07 08:15:44;;;;;;;24.40;15.52;;;51.60;2227.20;;;;;;5013996;28;20026;-83
2022/03/07 08:18:10;;;;;;;24.63;15.25;;;51.40;2227.20;;;;;;5013101;28;20048;-81
2022/03/07 08:20:36;;;;;;;27.75;21.48;;;51.40;2227.20;;;;;;5012081;28;20053;-80
2022/03/07 08:23:02;;;;;;;28.85;17.77;;;51.80;2227.20;;;;;;5013119;28;20099;-81
2022/03/07 08:25:27;;;;;;;21.63;15.05;;;51.80;2227.20;;;;;;5011492;28;20092;-83
2022/03/07 08:27:54;;;;;;;21.50;16.33;;;51.70;2227.20;;;;;;5013150;28;20026;-81
2022/03/07 08:30:22;;;;;;;26.35;17.40;;;51.80;2227.20;;;;;;5044769;28;20092;-80
2022/03/07 08:32:49;;;;;;;25.60;16.48;;;51.90;2227.20;;;;;;5013079;28;20098;-80
2022/03/07 08:35:15;;;;;;;22.55;15.13;;;51.70;2227.20;;;;;;5011508;28;20117;-78
2022/03/07 08:37:42;;;;;;;26.90;18.48;;;51.90;2227.20;;;;;;5012543;28;20022;-79
2022/03/07 08:40:10;;;;;;;27.63;18.50;;;52.00;2227.20;;;;;;5011378;28;20100;-80
2022/03/07 08:42:36;;;;;;;24.63;17.25;;;51.90;2227.20;;;;;;5012769;28;20433;-80
2022/03/07 08:45:02;;;;;;;28.15;19.70;;;52.10;2227.20;;;;;;5011400;28;20037;-79
2022/03/07 08:47:28;;;;;;;27.25;18.33;;;76.80;2227.20;;;;;;5013070;28;20022;-84
2022/03/07 08:49:55;;;;;;;24.67;16.88;;;76.80;2227.20;;;;;;5013137;28;20489;-79
2022/03/07 08:52:21;;;;;;;27.52;19.38;;;76.90;2227.20;;;;;;5012367;28;20385;-80
2022/03/07 08:54:47;;;;;;;27.15;21.02;;;77.40;2227.20;;;;;;5013020;28;20029;-79
2022/03/07 08:57:13;;;;;;;32.05;20.23;;;77.30;2227.20;;;;;;5011371;28;20053;-78
2022/03/07 08:59:39;;;;;;;25.17;18.58;;;77.20;2227.20;;;;;;5011467;28;20041;-78
2022/03/07 09:02:05;;;;;;;24.80;18.08;;;77.10;2227.20;;;;;;5012397;28;20022;-84
2022/03/07 09:04:31;;;;;;;22.55;16.80;;;77.00;2227.20;;;;;;5013155;28;20038;-84
2022/03/07 09:06:57;;;;;;;21.85;15.75;;;77.40;2227.20;;;;;;5012998;28;20050;-85
2022/03/07 09:09:23;;;;;;;31.05;21.10;;;77.40;2227.20;;;;;;5013223;28;20109;-82
2022/03/07 09:11:49;;;;;;;24.77;16.17;;;77.40;2227.20;;;;;;5012622;28;20029;-81
2022/03/07 09:14:15;;;;;;;26.25;16.23;;;77.40;2227.20;;;;;;5012787;28;20045;-80
2022/03/07 09:16:42;;;;;;;20.23;14.80;;;77.20;2227.20;;;;;;5011925;28;20025;-84
2022/03/07 09:19:08;;;;;;;19.33;14.18;;;77.30;2227.20;;;;;;5012998;28;20029;-84
2022/03/07 09:21:33;;;;;;;18.58;12.93;;;76.90;2227.20;;;;;;5012003;28;20041;-80
2022/03/07 09:23:59;;;;;;;18.73;14.20;;;77.00;2227.20;;;;;;5012372;28;20034;-82
2022/03/07 09:26:25;;;;;;;18.88;12.98;;;77.00;2227.20;;;;;;5010997;28;20022;-83
2022/03/07 09:28:52;;;;;;;21.50;15.65;;;76.80;2227.20;;;;;;5012616;28;20443;-83
2022/03/07 09:31:17;;;;;;;24.30;17.02;;;77.00;2227.20;;;;;;5012777;28;20106;-83
2022/03/07 09:33:43;;;;;;;22.40;14.55;;;77.10;2227.20;;;;;;5012579;28;20105;-85
2022/03/07 09:36:09;;;;;;;26.83;19.90;;;77.20;2227.20;;;;;;5012615;28;20465;-85
2022/03/07 09:38:36;;;;;;;21.60;14.85;;;77.30;2227.20;;;;;;5012691;28;20033;-84
2022/03/07 09:41:03;;;;;;;28.60;19.05;;;77.00;2227.20;;;;;;5012630;28;20486;-83
2022/03/07 09:43:29;;;;;;;29.50;19.85;;;77.20;2227.20;;;;;;5011281;28;20036;-83
2022/03/07 09:45:55;;;;;;;18.35;12.20;;;77.30;2227.20;;;;;;5012568;28;20037;-84
2022/03/07 09:48:22;;;;;;;19.67;15.00;;;77.00;2227.20;;;;;;5012679;28;20026;-85
2022/03/07 09:50:48;;;;;;;24.27;14.70;;;77.10;2227.20;;;;;;5014711;28;20033;-84
2022/03/07 09:53:16;;;;;;;28.95;19.08;;;77.00;2227.20;;;;;;5015202;28;20033;-83
2022/03/07 09:55:42;;;;;;;27.52;18.58;;;77.00;2227.20;;;;;;5016380;28;20103;-83
2022/03/07 09:58:08;;;;;;;19.45;14.20;;;77.10;2227.20;;;;;;5016375;28;20030;-83
2022/03/07 10:00:35;;;;;;;21.05;13.35;;;77.30;2227.20;;;;;;5015228;28;20116;-83
2022/03/07 10:03:06;;;;;;;24.90;18.67;;;77.00;2227.20;;;;;;5016346;28;20080;-84
2022/03/07 10:05:40;;;;;;;28.13;18.90;;;77.10;2227.20;;;;;;5015121;28;20049;-85
2022/03/07 10:08:07;;;;;;;27.13;16.60;;;77.30;2227.20;;;;;;5016250;28;20049;-84
2022/03/07 10:10:41;;;;;;;22.02;16.33;;;77.30;2227.20;;;;;;5016157;28;20022;-83
2022/03/07 10:13:09;;;;;;;23.63;16.25;;;77.40;2227.20;;;;;;5015739;28;20473;-85
2022/03/07 10:15:35;;;;;;;21.35;15.38;;;77.20;2227.20;;;;;;5014832;28;20045;-82
2022/03/07 10:18:02;;;;;;;20.70;13.48;;;77.40;2227.20;;;;;;5015916;28;20102;-84
2022/03/07 10:20:28;;;;;;;19.40;13.80;;;77.00;2227.20;;;;;;5016233;28;20026;-85
2022/03/07 10:22:56;;;;;;;18.02;13.15;;;77.10;2227.20;;;;;;5016300;28;20424;-84
2022/03/07 10:25:28;;;;;;;20.65;15.35;;;77.40;2227.20;;;;;;5014591;28;20045;-84
2022/03/07 10:27:56;;;;;;;24.73;16.42;;;77.50;2227.20;;;;;;5016091;28;20028;-85
2022/03/07 10:30:28;;;;;;;21.23;14.95;;;77.60;2227.20;;;;;;5015364;28;20109;-85
2022/03/07 10:33:05;;;;;;;25.08;17.98;;;77.40;2227.20;;;;;;5015887;28;20021;-84
2022/03/07 10:35:31;;;;;;;24.33;17.13;;;77.60;2227.20;;;;;;5015608;28;20030;-85
2022/03/07 10:38:02;;;;;;;21.42;14.80;;;77.60;2227.20;;;;;;5014565;28;20033;-85
2022/03/07 10:40:30;;;;;;;21.42;13.18;;;77.50;2227.20;;;;;;5015684;28;20040;-84
2022/03/07 10:43:00;;;;;;;23.10;15.80;;;77.30;2227.20;;;;;;5014946;28;20522;-85
2022/03/07 10:45:30;;;;;;;20.23;13.65;;;77.30;2227.20;;;;;;5014391;28;20496;-85
2022/03/07 10:48:01;;;;;;;23.85;14.43;;;77.50;2227.20;;;;;;5014364;28;20112;-84
2022/03/07 10:50:29;;;;;;;23.98;15.40;;;77.50;2227.20;;;;;;5015048;28;20029;-84
2022/03/07 10:53:04;;;;;;;20.48;15.50;;;102.40;2227.20;;;;;;5014215;28;20057;-85
2022/03/07 10:55:31;;;;;;;16.35;10.88;;;102.40;2227.20;;;;;;5015014;28;20485;-84
2022/03/07 10:58:10;;;;;;;22.58;14.75;;;77.50;2227.20;;;;;;5014979;28;20334;-85
2022/03/07 11:00:54;;;;;;;19.30;12.32;;;102.40;2227.20;;;;;;5015289;28;20034;-85
2022/03/07 11:03:21;;;;;;;;;;;77.60;2227.20;;;;;;5015331;28;20037;-83
2022/03/07 11:05:48;;;;;;;22.80;15.00;;;102.50;2227.20;;;;;;5014886;28;20361;-85
2022/03/07 11:08:15;;;;;;;25.23;15.73;;;77.70;2227.20;;;;;;5013902;28;20037;-84
2022/03/07 11:10:52;;;;;;;21.42;15.40;;;102.50;2227.20;;;;;;5014915;28;20109;-84
2022/03/07 11:13:19;;;;;;;17.77;12.98;;;102.80;2227.20;;;;;;5013725;28;20457;-85
2022/03/07 11:15:47;;;;;;;17.90;13.10;;;102.90;2227.20;;;;;;5013748;28;20037;-84
2022/03/07 11:18:15;;;;;;;19.17;13.63;;;102.70;2227.20;;;;;;5014911;28;20480;-83
2022/03/07 11:20:42;;;;;;;23.60;14.40;;;102.80;2227.20;;;;;;5014405;28;20109;-82
2022/03/07 11:23:13;;;;;;;17.60;14.15;;;102.60;2227.20;;;;;;5014914;28;20028;-85
2022/03/07 11:25:40;;;;;;;19.75;14.32;;;102.60;2227.20;;;;;;5014581;28;20033;-84
2022/03/07 11:28:07;;;;;;;22.27;16.40;;;102.90;2227.20;;;;;;5013354;28;20113;-84
2022/03/07 11:30:41;;;;;;;23.73;14.90;;;103.00;2227.20;;;;;;5014595;28;20026;-84
2022/03/07 11:33:33;;;;;;;19.42;13.43;;;102.80;2227.20;;;;;;4993769;28;20073;-85
2022/03/07 11:36:01;;;;;;;27.67;19.42;;;102.80;2227.20;;;;;;4994919;28;20030;-84
2022/03/07 11:38:31;;;;;;;32.25;24.20;;;102.90;2227.20;;;;;;4994760;28;20022;-83
2022/03/07 11:41:09;;;;;;;33.83;22.25;;;103.10;2227.20;;;;;;4994885;28;20029;-84
2022/03/07 11:44:00;;;;;;;35.88;24.90;;;102.90;2227.20;;;;;;4993489;28;20524;-84
2022/03/07 11:46:31;;;;;;;22.55;13.57;;;102.50;2227.20;;;;;;4994815;28;20030;-85
2022/03/07 11:48:58;;;;;;;24.33;17.92;;;77.50;2227.20;;;;;;4994623;28;20107;-86
2022/03/07 11:51:26;;;;;;;27.23;18.85;;;77.60;2227.20;;;;;;4994767;28;20500;-85
2022/03/07 11:53:54;;;;;;;20.65;15.15;;;77.60;2227.20;;;;;;4994353;28;20026;-83
2022/03/07 11:56:23;;;;;;;24.63;18.60;;;77.50;2227.20;;;;;;5002351;28;20029;-84
2022/03/07 11:58:53;;;;;;;27.30;18.20;;;102.40;2227.20;;;;;;5013008;28;20033;-84
2022/03/07 12:01:21;;;;;;;39.13;26.00;;;77.40;2227.20;;;;;;5013581;28;20026;-84
2022/03/07 12:03:47;;;;;;;34.97;24.13;;;102.40;2227.20;;;;;;5012427;28;20038;-84
2022/03/07 12:06:15;;;;;;;22.98;17.05;;;102.50;2227.20;;;;;;5013542;28;20133;-82